sensor_id;sensor_type;location;lat;lon;timestamp;temperature;humidity
10306;DHT22;5198;52.382;9.020;2023-06-22T00:02:16;20.70;99.90
10306;DHT22;5198;52.382;9.020;2023-06-22T00:06:19;20.70;99.90
10306;DHT22;5198;52.382;9.020;2023-06-22T00:10:23;20.60;99.90
10306;DHT22;5198;52.382;9.020;2023-06-22T00:14:26;20.60;99.90
10306;DHT22;5198;52.382;9.020;2023-06-22T00:18:29;20.60;99.90
10306;DHT22;5198;52.382;9.020;2023-06-22T00:22:33;20.50;99.90
10306;DHT22;5198;52.382;9.020;2023-06-22T00:26:41;20.50;99.90
10306;DHT22;5198;52.382;9.020;2023-06-22T00:30:44;20.50;99.90
10306;DHT22;5198;52.382;9.020;2023-06-22T00:34:48;20.40;99.90
10306;DHT22;5198;52.382;9.020;2023-06-22T00:38:51;20.40;99.90
10306;DHT22;5198;52.382;9.020;2023-06-22T00:42:56;20.30;99.90
10306;DHT22;5198;52.382;9.020;2023-06-22T00:46:59;20.30;99.90
10306;DHT22;5198;52.382;9.020;2023-06-22T00:51:02;20.20;99.90
10306;DHT22;5198;52.382;9.020;2023-06-22T00:55:05;20.20;99.90
10306;DHT22;5198;52.382;9.020;2023-06-22T00:59:10;20.20;99.90
10306;DHT22;5198;52.382;9.020;2023-06-22T01:03:14;20.10;99.90
10306;DHT22;5198;52.382;9.020;2023-06-22T01:07:20;20.10;99.90
10306;DHT22;5198;52.382;9.020;2023-06-22T01:11:28;20.00;99.90
10306;DHT22;5198;52.382;9.020;2023-06-22T01:15:36;19.90;99.90
10306;DHT22;5198;52.382;9.020;2023-06-22T01:19:45;19.90;99.90
10306;DHT22;5198;52.382;9.020;2023-06-22T01:23:56;19.80;99.90
10306;DHT22;5198;52.382;9.020;2023-06-22T01:28:03;19.80;99.90
10306;DHT22;5198;52.382;9.020;2023-06-22T01:32:09;19.70;99.90
10306;DHT22;5198;52.382;9.020;2023-06-22T01:36:13;19.60;99.90
10306;DHT22;5198;52.382;9.020;2023-06-22T01:40:16;19.60;99.90
10306;DHT22;5198;52.382;9.020;2023-06-22T01:44:21;19.60;99.90
10306;DHT22;5198;52.382;9.020;2023-06-22T01:48:25;19.50;99.90
10306;DHT22;5198;52.382;9.020;2023-06-22T01:52:28;19.50;99.90
10306;DHT22;5198;52.382;9.020;2023-06-22T01:56:31;19.50;99.90
10306;DHT22;5198;52.382;9.020;2023-06-22T02:00:37;19.40;99.90
10306;DHT22;5198;52.382;9.020;2023-06-22T02:04:43;19.40;99.90
10306;DHT22;5198;52.382;9.020;2023-06-22T02:08:48;19.30;99.90
10306;DHT22;5198;52.382;9.020;2023-06-22T02:12:53;19.30;99.90
10306;DHT22;5198;52.382;9.020;2023-06-22T02:16:56;19.30;99.90
10306;DHT22;5198;52.382;9.020;2023-06-22T02:21:02;19.20;99.90
10306;DHT22;5198;52.382;9.020;2023-06-22T02:25:06;19.20;99.90
10306;DHT22;5198;52.382;9.020;2023-06-22T02:29:09;19.20;99.90
10306;DHT22;5198;52.382;9.020;2023-06-22T02:33:12;19.10;99.90
10306;DHT22;5198;52.382;9.020;2023-06-22T02:37:16;19.20;99.90
10306;DHT22;5198;52.382;9.020;2023-06-22T02:41:19;19.10;99.90
10306;DHT22;5198;52.382;9.020;2023-06-22T02:45:22;19.00;99.90
10306;DHT22;5198;52.382;9.020;2023-06-22T02:49:25;19.00;99.90
10306;DHT22;5198;52.382;9.020;2023-06-22T02:53:29;19.00;99.90
10306;DHT22;5198;52.382;9.020;2023-06-22T02:57:32;19.00;99.90
10306;DHT22;5198;52.382;9.020;2023-06-22T03:01:35;19.00;99.90
10306;DHT22;5198;52.382;9.020;2023-06-22T03:05:41;18.90;99.90
10306;DHT22;5198;52.382;9.020;2023-06-22T03:09:46;18.90;99.90
10306;DHT22;5198;52.382;9.020;2023-06-22T03:13:48;18.90;99.90
10306;DHT22;5198;52.382;9.020;2023-06-22T03:17:53;18.90;99.90
10306;DHT22;5198;52.382;9.020;2023-06-22T03:21:56;18.80;99.90
10306;DHT22;5198;52.382;9.020;2023-06-22T03:26:00;18.80;99.90
10306;DHT22;5198;52.382;9.020;2023-06-22T03:30:04;18.80;99.90
10306;DHT22;5198;52.382;9.020;2023-06-22T03:34:07;18.70;99.90
10306;DHT22;5198;52.382;9.020;2023-06-22T03:38:10;18.70;99.90
10306;DHT22;5198;52.382;9.020;2023-06-22T03:42:14;18.70;99.90
10306;DHT22;5198;52.382;9.020;2023-06-22T03:46:17;18.70;99.90
10306;DHT22;5198;52.382;9.020;2023-06-22T03:50:21;18.70;99.90
10306;DHT22;5198;52.382;9.020;2023-06-22T03:54:24;18.70;99.90
10306;DHT22;5198;52.382;9.020;2023-06-22T03:58:28;18.70;99.90
10306;DHT22;5198;52.382;9.020;2023-06-22T04:02:34;18.70;99.90
10306;DHT22;5198;52.382;9.020;2023-06-22T04:06:37;18.70;99.90
10306;DHT22;5198;52.382;9.020;2023-06-22T04:10:40;18.70;99.90
10306;DHT22;5198;52.382;9.020;2023-06-22T04:14:44;18.70;99.90
10306;DHT22;5198;52.382;9.020;2023-06-22T04:18:47;18.70;99.90
10306;DHT22;5198;52.382;9.020;2023-06-22T04:22:50;18.80;99.90
10306;DHT22;5198;52.382;9.020;2023-06-22T04:26:53;18.80;99.90
10306;DHT22;5198;52.382;9.020;2023-06-22T04:30:58;18.90;99.90
10306;DHT22;5198;52.382;9.020;2023-06-22T04:35:04;18.90;99.90
10306;DHT22;5198;52.382;9.020;2023-06-22T04:39:08;18.90;99.90
10306;DHT22;5198;52.382;9.020;2023-06-22T04:43:11;19.00;99.90
10306;DHT22;5198;52.382;9.020;2023-06-22T04:47:16;18.90;99.90
10306;DHT22;5198;52.382;9.020;2023-06-22T04:51:18;19.00;99.90
10306;DHT22;5198;52.382;9.020;2023-06-22T04:55:23;19.00;99.90
10306;DHT22;5198;52.382;9.020;2023-06-22T04:59:27;19.00;99.90
10306;DHT22;5198;52.382;9.020;2023-06-22T05:03:33;19.10;99.90
10306;DHT22;5198;52.382;9.020;2023-06-22T05:07:39;19.10;99.90
10306;DHT22;5198;52.382;9.020;2023-06-22T05:11:45;19.20;99.90
10306;DHT22;5198;52.382;9.020;2023-06-22T05:15:48;19.30;99.90
10306;DHT22;5198;52.382;9.020;2023-06-22T05:19:52;19.30;99.90
10306;DHT22;5198;52.382;9.020;2023-06-22T05:23:56;19.40;99.90
10306;DHT22;5198;52.382;9.020;2023-06-22T05:32:12;19.50;99.90
10306;DHT22;5198;52.382;9.020;2023-06-22T05:36:16;19.50;99.90
10306;DHT22;5198;52.382;9.020;2023-06-22T05:40:21;19.60;99.90
10306;DHT22;5198;52.382;9.020;2023-06-22T05:48:31;19.80;99.90
10306;DHT22;5198;52.382;9.020;2023-06-22T05:52:35;19.90;99.90
10306;DHT22;5198;52.382;9.020;2023-06-22T05:56:56;20.00;99.90
10306;DHT22;5198;52.382;9.020;2023-06-22T06:00:59;20.10;99.90
10306;DHT22;5198;52.382;9.020;2023-06-22T06:05:02;20.20;99.90
10306;DHT22;5198;52.382;9.020;2023-06-22T06:09:06;20.30;99.90
10306;DHT22;5198;52.382;9.020;2023-06-22T06:13:09;20.40;99.90
10306;DHT22;5198;52.382;9.020;2023-06-22T06:17:12;20.50;99.90
10306;DHT22;5198;52.382;9.020;2023-06-22T06:21:15;20.60;99.90
10306;DHT22;5198;52.382;9.020;2023-06-22T06:25:34;20.70;99.90
10306;DHT22;5198;52.382;9.020;2023-06-22T06:29:37;20.80;99.90
10306;DHT22;5198;52.382;9.020;2023-06-22T06:33:40;20.90;99.90
10306;DHT22;5198;52.382;9.020;2023-06-22T06:37:46;21.00;99.90
10306;DHT22;5198;52.382;9.020;2023-06-22T06:41:50;21.20;99.90
10306;DHT22;5198;52.382;9.020;2023-06-22T06:45:54;21.30;99.90
10306;DHT22;5198;52.382;9.020;2023-06-22T06:49:57;21.40;99.90
10306;DHT22;5198;52.382;9.020;2023-06-22T06:54:01;21.50;99.90
10306;DHT22;5198;52.382;9.020;2023-06-22T06:58:06;21.70;99.90
10306;DHT22;5198;52.382;9.020;2023-06-22T07:02:11;21.90;99.90
10306;DHT22;5198;52.382;9.020;2023-06-22T07:06:14;22.00;99.90
10306;DHT22;5198;52.382;9.020;2023-06-22T07:10:18;22.20;99.90
10306;DHT22;5198;52.382;9.020;2023-06-22T07:14:22;22.30;99.90
10306;DHT22;5198;52.382;9.020;2023-06-22T07:18:25;22.60;99.90
10306;DHT22;5198;52.382;9.020;2023-06-22T07:22:29;22.60;99.90
10306;DHT22;5198;52.382;9.020;2023-06-22T07:26:32;22.80;99.90
10306;DHT22;5198;52.382;9.020;2023-06-22T07:30:36;23.00;99.90
10306;DHT22;5198;52.382;9.020;2023-06-22T07:34:39;23.10;99.90
10306;DHT22;5198;52.382;9.020;2023-06-22T07:38:43;23.40;99.90
10306;DHT22;5198;52.382;9.020;2023-06-22T07:42:45;23.50;99.90
10306;DHT22;5198;52.382;9.020;2023-06-22T07:46:51;23.70;99.90
10306;DHT22;5198;52.382;9.020;2023-06-22T07:55:27;24.00;99.90
10306;DHT22;5198;52.382;9.020;2023-06-22T07:59:31;24.10;99.90
10306;DHT22;5198;52.382;9.020;2023-06-22T08:03:35;24.30;99.90
10306;DHT22;5198;52.382;9.020;2023-06-22T08:07:38;24.40;99.90
10306;DHT22;5198;52.382;9.020;2023-06-22T08:11:42;24.50;99.90
10306;DHT22;5198;52.382;9.020;2023-06-22T08:15:44;24.60;99.90
10306;DHT22;5198;52.382;9.020;2023-06-22T08:19:52;24.70;99.90
10306;DHT22;5198;52.382;9.020;2023-06-22T08:23:55;24.80;99.90
10306;DHT22;5198;52.382;9.020;2023-06-22T08:27:58;24.90;99.90
10306;DHT22;5198;52.382;9.020;2023-06-22T08:32:00;24.90;99.90
10306;DHT22;5198;52.382;9.020;2023-06-22T08:36:05;24.90;99.90
10306;DHT22;5198;52.382;9.020;2023-06-22T08:40:10;24.90;99.90
10306;DHT22;5198;52.382;9.020;2023-06-22T08:44:13;24.90;99.90
10306;DHT22;5198;52.382;9.020;2023-06-22T08:48:17;24.90;99.90
10306;DHT22;5198;52.382;9.020;2023-06-22T08:52:21;24.90;99.90
10306;DHT22;5198;52.382;9.020;2023-06-22T08:56:25;25.00;99.90
10306;DHT22;5198;52.382;9.020;2023-06-22T09:00:27;25.10;99.90
10306;DHT22;5198;52.382;9.020;2023-06-22T09:04:34;25.10;99.90
10306;DHT22;5198;52.382;9.020;2023-06-22T09:08:38;25.20;99.90
10306;DHT22;5198;52.382;9.020;2023-06-22T09:12:41;25.30;99.90
10306;DHT22;5198;52.382;9.020;2023-06-22T09:16:44;25.40;99.90
10306;DHT22;5198;52.382;9.020;2023-06-22T09:20:47;25.50;99.90
10306;DHT22;5198;52.382;9.020;2023-06-22T09:24:52;25.50;99.90
10306;DHT22;5198;52.382;9.020;2023-06-22T09:28:55;25.50;99.90
10306;DHT22;5198;52.382;9.020;2023-06-22T09:32:58;25.60;99.90
10306;DHT22;5198;52.382;9.020;2023-06-22T09:37:03;25.60;99.90
10306;DHT22;5198;52.382;9.020;2023-06-22T09:41:07;25.80;99.90
10306;DHT22;5198;52.382;9.020;2023-06-22T09:45:10;25.80;99.90
10306;DHT22;5198;52.382;9.020;2023-06-22T09:49:13;26.10;99.90
10306;DHT22;5198;52.382;9.020;2023-06-22T09:53:16;26.20;99.90
10306;DHT22;5198;52.382;9.020;2023-06-22T09:57:20;26.40;99.90
10306;DHT22;5198;52.382;9.020;2023-06-22T10:01:23;26.50;99.90
10306;DHT22;5198;52.382;9.020;2023-06-22T10:05:26;26.70;99.90
10306;DHT22;5198;52.382;9.020;2023-06-22T10:09:29;26.90;99.90
10306;DHT22;5198;52.382;9.020;2023-06-22T10:13:34;27.00;99.90
10306;DHT22;5198;52.382;9.020;2023-06-22T10:17:36;27.20;99.90
10306;DHT22;5198;52.382;9.020;2023-06-22T10:21:39;27.40;99.90
10306;DHT22;5198;52.382;9.020;2023-06-22T10:25:42;27.70;99.90
10306;DHT22;5198;52.382;9.020;2023-06-22T10:29:47;28.00;99.90
10306;DHT22;5198;52.382;9.020;2023-06-22T10:33:49;28.20;99.90
10306;DHT22;5198;52.382;9.020;2023-06-22T10:37:52;28.60;99.90
10306;DHT22;5198;52.382;9.020;2023-06-22T10:41:57;28.60;99.90
10306;DHT22;5198;52.382;9.020;2023-06-22T10:46:01;28.80;99.90
10306;DHT22;5198;52.382;9.020;2023-06-22T10:50:04;28.90;99.90
10306;DHT22;5198;52.382;9.020;2023-06-22T10:54:08;29.00;99.90
10306;DHT22;5198;52.382;9.020;2023-06-22T10:58:10;29.00;99.90
10306;DHT22;5198;52.382;9.020;2023-06-22T11:02:15;29.00;99.90
10306;DHT22;5198;52.382;9.020;2023-06-22T11:06:18;29.10;99.90
10306;DHT22;5198;52.382;9.020;2023-06-22T11:10:21;29.10;99.90
10306;DHT22;5198;52.382;9.020;2023-06-22T11:14:24;29.10;99.90
10306;DHT22;5198;52.382;9.020;2023-06-22T11:18:28;29.20;99.90
10306;DHT22;5198;52.382;9.020;2023-06-22T11:22:31;29.30;99.90
10306;DHT22;5198;52.382;9.020;2023-06-22T11:26:35;29.40;99.90
10306;DHT22;5198;52.382;9.020;2023-06-22T11:30:38;29.60;99.90
10306;DHT22;5198;52.382;9.020;2023-06-22T11:34:42;29.70;99.90
10306;DHT22;5198;52.382;9.020;2023-06-22T11:38:45;29.70;99.90
10306;DHT22;5198;52.382;9.020;2023-06-22T11:42:48;29.80;99.90
10306;DHT22;5198;52.382;9.020;2023-06-22T11:46:51;29.90;99.90
10306;DHT22;5198;52.382;9.020;2023-06-22T11:50:56;30.00;99.90
10306;DHT22;5198;52.382;9.020;2023-06-22T11:55:00;30.10;99.90
10306;DHT22;5198;52.382;9.020;2023-06-22T11:59:05;30.20;99.90
10306;DHT22;5198;52.382;9.020;2023-06-22T12:03:08;30.30;99.90
10306;DHT22;5198;52.382;9.020;2023-06-22T12:07:15;30.40;99.90
10306;DHT22;5198;52.382;9.020;2023-06-22T12:11:18;30.50;99.90
10306;DHT22;5198;52.382;9.020;2023-06-22T12:15:21;30.70;99.90
10306;DHT22;5198;52.382;9.020;2023-06-22T12:19:24;30.90;99.90
10306;DHT22;5198;52.382;9.020;2023-06-22T12:23:28;31.00;99.90
10306;DHT22;5198;52.382;9.020;2023-06-22T12:27:31;31.10;99.90
10306;DHT22;5198;52.382;9.020;2023-06-22T12:31:35;31.10;99.90
10306;DHT22;5198;52.382;9.020;2023-06-22T12:35:38;31.20;99.90
10306;DHT22;5198;52.382;9.020;2023-06-22T12:39:42;31.30;99.90
10306;DHT22;5198;52.382;9.020;2023-06-22T12:43:46;31.40;99.90
10306;DHT22;5198;52.382;9.020;2023-06-22T12:47:49;31.50;99.90
10306;DHT22;5198;52.382;9.020;2023-06-22T12:51:52;31.50;99.90
10306;DHT22;5198;52.382;9.020;2023-06-22T12:55:56;31.40;99.90
10306;DHT22;5198;52.382;9.020;2023-06-22T13:00:00;31.40;99.90
10306;DHT22;5198;52.382;9.020;2023-06-22T13:04:03;31.20;99.90
10306;DHT22;5198;52.382;9.020;2023-06-22T13:08:05;31.10;99.90
10306;DHT22;5198;52.382;9.020;2023-06-22T13:12:14;31.10;99.90
10306;DHT22;5198;52.382;9.020;2023-06-22T13:16:23;30.90;99.90
10306;DHT22;5198;52.382;9.020;2023-06-22T13:20:28;30.80;99.90
10306;DHT22;5198;52.382;9.020;2023-06-22T13:24:31;30.60;99.90
10306;DHT22;5198;52.382;9.020;2023-06-22T13:28:35;30.50;99.90
10306;DHT22;5198;52.382;9.020;2023-06-22T13:32:38;30.30;99.90
10306;DHT22;5198;52.382;9.020;2023-06-22T13:36:43;30.10;99.90
10306;DHT22;5198;52.382;9.020;2023-06-22T13:40:47;29.80;99.90
10306;DHT22;5198;52.382;9.020;2023-06-22T13:44:52;29.60;99.90
10306;DHT22;5198;52.382;9.020;2023-06-22T13:48:54;29.40;99.90
10306;DHT22;5198;52.382;9.020;2023-06-22T13:52:57;29.20;99.90
10306;DHT22;5198;52.382;9.020;2023-06-22T13:57:00;29.00;99.90
10306;DHT22;5198;52.382;9.020;2023-06-22T14:01:05;28.80;99.90
10306;DHT22;5198;52.382;9.020;2023-06-22T14:05:08;28.60;99.90
10306;DHT22;5198;52.382;9.020;2023-06-22T14:09:12;28.40;99.90
10306;DHT22;5198;52.382;9.020;2023-06-22T14:13:15;28.20;99.90
10306;DHT22;5198;52.382;9.020;2023-06-22T14:17:19;28.00;99.90
10306;DHT22;5198;52.382;9.020;2023-06-22T14:21:25;27.80;99.90
10306;DHT22;5198;52.382;9.020;2023-06-22T14:25:28;27.60;99.90
10306;DHT22;5198;52.382;9.020;2023-06-22T14:29:31;27.50;99.90
10306;DHT22;5198;52.382;9.020;2023-06-22T14:33:35;27.30;99.90
10306;DHT22;5198;52.382;9.020;2023-06-22T14:37:38;27.10;99.90
10306;DHT22;5198;52.382;9.020;2023-06-22T14:41:41;26.90;99.90
10306;DHT22;5198;52.382;9.020;2023-06-22T14:45:44;26.80;99.90
10306;DHT22;5198;52.382;9.020;2023-06-22T14:49:49;26.70;99.90
10306;DHT22;5198;52.382;9.020;2023-06-22T14:53:52;26.50;99.90
10306;DHT22;5198;52.382;9.020;2023-06-22T14:57:55;26.40;99.90
10306;DHT22;5198;52.382;9.020;2023-06-22T15:01:58;26.30;99.90
10306;DHT22;5198;52.382;9.020;2023-06-22T15:06:02;26.20;99.90
10306;DHT22;5198;52.382;9.020;2023-06-22T15:10:06;26.10;99.90
10306;DHT22;5198;52.382;9.020;2023-06-22T15:14:09;25.90;99.90
10306;DHT22;5198;52.382;9.020;2023-06-22T15:18:14;25.70;99.90
10306;DHT22;5198;52.382;9.020;2023-06-22T15:22:18;25.60;99.90
10306;DHT22;5198;52.382;9.020;2023-06-22T15:26:21;25.40;99.90
10306;DHT22;5198;52.382;9.020;2023-06-22T15:30:24;25.20;99.90
10306;DHT22;5198;52.382;9.020;2023-06-22T15:34:27;25.10;99.90
10306;DHT22;5198;52.382;9.020;2023-06-22T15:38:33;24.90;99.90
10306;DHT22;5198;52.382;9.020;2023-06-22T15:42:36;24.90;99.90
10306;DHT22;5198;52.382;9.020;2023-06-22T15:46:39;24.70;99.90
10306;DHT22;5198;52.382;9.020;2023-06-22T15:50:42;24.60;99.90
10306;DHT22;5198;52.382;9.020;2023-06-22T15:54:46;24.40;99.90
10306;DHT22;5198;52.382;9.020;2023-06-22T15:58:49;24.30;99.90
10306;DHT22;5198;52.382;9.020;2023-06-22T16:02:52;24.20;99.90
10306;DHT22;5198;52.382;9.020;2023-06-22T16:06:55;24.20;99.90
10306;DHT22;5198;52.382;9.020;2023-06-22T16:10:59;24.10;99.90
10306;DHT22;5198;52.382;9.020;2023-06-22T16:15:02;24.20;99.90
10306;DHT22;5198;52.382;9.020;2023-06-22T16:19:05;24.20;99.90
10306;DHT22;5198;52.382;9.020;2023-06-22T16:23:08;24.30;99.90
10306;DHT22;5198;52.382;9.020;2023-06-22T16:27:12;24.60;99.90
10306;DHT22;5198;52.382;9.020;2023-06-22T16:31:15;24.80;99.90
10306;DHT22;5198;52.382;9.020;2023-06-22T16:35:19;24.90;99.90
10306;DHT22;5198;52.382;9.020;2023-06-22T16:39:22;25.10;99.90
10306;DHT22;5198;52.382;9.020;2023-06-22T16:43:26;25.20;99.90
10306;DHT22;5198;52.382;9.020;2023-06-22T16:47:29;25.20;99.90
10306;DHT22;5198;52.382;9.020;2023-06-22T16:51:32;25.20;99.90
10306;DHT22;5198;52.382;9.020;2023-06-22T16:55:35;25.20;99.90
10306;DHT22;5198;52.382;9.020;2023-06-22T16:59:40;25.20;99.90
10306;DHT22;5198;52.382;9.020;2023-06-22T17:03:44;25.10;99.90
10306;DHT22;5198;52.382;9.020;2023-06-22T17:07:53;25.00;99.90
10306;DHT22;5198;52.382;9.020;2023-06-22T17:11:56;24.90;99.90
10306;DHT22;5198;52.382;9.020;2023-06-22T17:16:05;24.80;99.90
10306;DHT22;5198;52.382;9.020;2023-06-22T17:20:15;24.70;99.90
10306;DHT22;5198;52.382;9.020;2023-06-22T17:24:18;24.60;99.90
10306;DHT22;5198;52.382;9.020;2023-06-22T17:28:21;24.50;99.90
10306;DHT22;5198;52.382;9.020;2023-06-22T17:32:26;24.30;99.90
10306;DHT22;5198;52.382;9.020;2023-06-22T17:36:32;24.20;99.90
10306;DHT22;5198;52.382;9.020;2023-06-22T17:40:35;24.10;99.90
10306;DHT22;5198;52.382;9.020;2023-06-22T17:44:42;24.00;99.90
10306;DHT22;5198;52.382;9.020;2023-06-22T17:48:46;23.90;99.90
10306;DHT22;5198;52.382;9.020;2023-06-22T17:52:50;23.80;99.90
10306;DHT22;5198;52.382;9.020;2023-06-22T17:56:54;23.70;99.90
10306;DHT22;5198;52.382;9.020;2023-06-22T18:00:57;23.70;99.90
10306;DHT22;5198;52.382;9.020;2023-06-22T18:05:03;23.60;99.90
10306;DHT22;5198;52.382;9.020;2023-06-22T18:09:08;23.60;99.90
10306;DHT22;5198;52.382;9.020;2023-06-22T18:13:11;23.50;99.90
10306;DHT22;5198;52.382;9.020;2023-06-22T18:17:16;23.50;99.90
10306;DHT22;5198;52.382;9.020;2023-06-22T18:21:23;23.40;99.90
10306;DHT22;5198;52.382;9.020;2023-06-22T18:25:27;23.40;99.90
10306;DHT22;5198;52.382;9.020;2023-06-22T18:29:35;23.20;99.90
10306;DHT22;5198;52.382;9.020;2023-06-22T18:33:52;23.20;99.90
10306;DHT22;5198;52.382;9.020;2023-06-22T18:37:56;23.10;99.90
10306;DHT22;5198;52.382;9.020;2023-06-22T18:42:00;23.10;99.90
10306;DHT22;5198;52.382;9.020;2023-06-22T18:50:34;23.00;99.90
10306;DHT22;5198;52.382;9.020;2023-06-22T18:54:39;22.90;99.90
10306;DHT22;5198;52.382;9.020;2023-06-22T18:58:42;22.80;99.90
10306;DHT22;5198;52.382;9.020;2023-06-22T19:02:46;22.80;99.90
10306;DHT22;5198;52.382;9.020;2023-06-22T19:06:56;22.70;99.90
10306;DHT22;5198;52.382;9.020;2023-06-22T19:11:11;22.70;99.90
10306;DHT22;5198;52.382;9.020;2023-06-22T19:15:15;22.60;99.90
10306;DHT22;5198;52.382;9.020;2023-06-22T19:19:18;22.60;99.90
10306;DHT22;5198;52.382;9.020;2023-06-22T19:23:24;22.50;99.90
10306;DHT22;5198;52.382;9.020;2023-06-22T19:27:31;22.50;99.90
10306;DHT22;5198;52.382;9.020;2023-06-22T19:31:34;22.40;99.90
10306;DHT22;5198;52.382;9.020;2023-06-22T19:35:37;22.40;99.90
10306;DHT22;5198;52.382;9.020;2023-06-22T19:39:40;22.30;99.90
10306;DHT22;5198;52.382;9.020;2023-06-22T19:43:49;22.20;99.90
10306;DHT22;5198;52.382;9.020;2023-06-22T19:47:55;22.20;99.90
10306;DHT22;5198;52.382;9.020;2023-06-22T19:52:04;22.10;99.90
10306;DHT22;5198;52.382;9.020;2023-06-22T19:56:07;22.10;99.90
10306;DHT22;5198;52.382;9.020;2023-06-22T20:00:19;22.00;99.90
10306;DHT22;5198;52.382;9.020;2023-06-22T20:04:22;21.90;99.90
10306;DHT22;5198;52.382;9.020;2023-06-22T20:08:25;21.90;99.90
10306;DHT22;5198;52.382;9.020;2023-06-22T20:12:28;21.80;99.90
10306;DHT22;5198;52.382;9.020;2023-06-22T20:16:37;21.80;99.90
10306;DHT22;5198;52.382;9.020;2023-06-22T20:20:48;21.70;99.90
10306;DHT22;5198;52.382;9.020;2023-06-22T20:24:51;21.70;99.90
10306;DHT22;5198;52.382;9.020;2023-06-22T20:28:54;21.70;99.90
10306;DHT22;5198;52.382;9.020;2023-06-22T20:32:58;21.60;99.90
10306;DHT22;5198;52.382;9.020;2023-06-22T20:37:01;21.60;99.90
10306;DHT22;5198;52.382;9.020;2023-06-22T20:41:04;21.60;99.90
10306;DHT22;5198;52.382;9.020;2023-06-22T20:45:08;21.50;99.90
10306;DHT22;5198;52.382;9.020;2023-06-22T20:49:12;21.50;99.90
10306;DHT22;5198;52.382;9.020;2023-06-22T20:53:16;21.50;99.90
10306;DHT22;5198;52.382;9.020;2023-06-22T20:57:19;21.40;99.90
10306;DHT22;5198;52.382;9.020;2023-06-22T21:01:22;21.40;99.90
10306;DHT22;5198;52.382;9.020;2023-06-22T21:05:29;21.40;99.90
10306;DHT22;5198;52.382;9.020;2023-06-22T21:09:32;21.40;99.90
10306;DHT22;5198;52.382;9.020;2023-06-22T21:13:51;21.40;99.90
10306;DHT22;5198;52.382;9.020;2023-06-22T21:17:55;21.30;99.90
10306;DHT22;5198;52.382;9.020;2023-06-22T21:21:59;21.30;99.90
10306;DHT22;5198;52.382;9.020;2023-06-22T21:26:02;21.30;99.90
10306;DHT22;5198;52.382;9.020;2023-06-22T21:30:06;21.30;99.90
10306;DHT22;5198;52.382;9.020;2023-06-22T21:34:11;21.30;99.90
10306;DHT22;5198;52.382;9.020;2023-06-22T21:38:15;21.30;99.90
10306;DHT22;5198;52.382;9.020;2023-06-22T21:42:18;21.20;99.90
10306;DHT22;5198;52.382;9.020;2023-06-22T21:46:23;21.20;99.90
10306;DHT22;5198;52.382;9.020;2023-06-22T21:50:26;21.20;99.90
10306;DHT22;5198;52.382;9.020;2023-06-22T21:54:30;21.20;99.90
10306;DHT22;5198;52.382;9.020;2023-06-22T21:58:33;21.10;99.90
10306;DHT22;5198;52.382;9.020;2023-06-22T22:02:36;21.10;99.90
10306;DHT22;5198;52.382;9.020;2023-06-22T22:06:39;21.10;99.90
10306;DHT22;5198;52.382;9.020;2023-06-22T22:10:44;21.10;99.90
10306;DHT22;5198;52.382;9.020;2023-06-22T22:14:47;21.10;99.90
10306;DHT22;5198;52.382;9.020;2023-06-22T22:18:49;21.10;99.90
10306;DHT22;5198;52.382;9.020;2023-06-22T22:22:52;21.10;99.90
10306;DHT22;5198;52.382;9.020;2023-06-22T22:26:56;21.10;99.90
10306;DHT22;5198;52.382;9.020;2023-06-22T22:30:59;21.10;99.90
10306;DHT22;5198;52.382;9.020;2023-06-22T22:35:03;21.10;99.90
10306;DHT22;5198;52.382;9.020;2023-06-22T22:39:06;21.10;99.90
10306;DHT22;5198;52.382;9.020;2023-06-22T22:43:10;21.10;99.90
10306;DHT22;5198;52.382;9.020;2023-06-22T22:47:13;21.10;99.90
10306;DHT22;5198;52.382;9.020;2023-06-22T22:51:16;21.10;99.90
10306;DHT22;5198;52.382;9.020;2023-06-22T22:55:19;21.10;99.90
10306;DHT22;5198;52.382;9.020;2023-06-22T22:59:25;21.10;99.90
10306;DHT22;5198;52.382;9.020;2023-06-22T23:03:28;21.10;99.90
10306;DHT22;5198;52.382;9.020;2023-06-22T23:07:32;21.00;99.90
10306;DHT22;5198;52.382;9.020;2023-06-22T23:11:45;21.00;99.90
10306;DHT22;5198;52.382;9.020;2023-06-22T23:15:49;21.00;99.90
10306;DHT22;5198;52.382;9.020;2023-06-22T23:19:53;21.00;99.90
10306;DHT22;5198;52.382;9.020;2023-06-22T23:23:56;21.00;99.90
10306;DHT22;5198;52.382;9.020;2023-06-22T23:27:59;21.00;99.90
10306;DHT22;5198;52.382;9.020;2023-06-22T23:32:04;20.90;99.90
10306;DHT22;5198;52.382;9.020;2023-06-22T23:36:07;20.90;99.90
10306;DHT22;5198;52.382;9.020;2023-06-22T23:40:10;20.90;99.90
10306;DHT22;5198;52.382;9.020;2023-06-22T23:44:18;20.90;99.90
10306;DHT22;5198;52.382;9.020;2023-06-22T23:48:22;20.90;99.90
10306;DHT22;5198;52.382;9.020;2023-06-22T23:52:25;20.80;99.90
10306;DHT22;5198;52.382;9.020;2023-06-22T23:56:28;20.80;99.90
